Time;durP1;ratioP1;P1;durP2;ratioP2;P2;SDS_P1;SDS_P2;PMS_P1;PMS_P2;Temp;Humidity;BMP_temperature;BMP_pressure;BME280_temperature;BME280_humidity;BME280_pressure;Samples;Min_cycle;Max_cycle;Signal;HPM_P1;HPM_P2
2022/04/09 00:00:01;;;;;;;1.10;1.00;;;;;;;9.23;80.95;94416.36;108033;1271;44918;-75
2022/04/09 00:02:53;;;;;;;1.50;0.80;;;;;;;9.17;80.82;94408.05;108022;1271;43705;-76
2022/04/09 00:05:23;;;;;;;1.80;0.80;;;;;;;9.14;80.99;94413.66;108071;1271;32353;-75
2022/04/09 00:07:54;;;;;;;0.70;0.50;;;;;;;9.15;81.13;94411.21;108031;1271;44672;-76
2022/04/09 00:10:26;;;;;;;0.70;0.70;;;;;;;9.11;81.32;94408.05;108034;1271;42766;-76
2022/04/09 00:12:56;;;;;;;1.10;0.70;;;;;;;9.08;81.20;94417.91;107998;1271;41753;-75
2022/04/09 00:15:28;;;;;;;0.90;0.70;;;;;;;9.04;81.38;94411.27;107989;1271;85907;-76
2022/04/09 00:17:59;;;;;;;1.50;0.60;;;;;;;9.03;81.24;94416.38;107860;1274;109355;-75
2022/04/09 00:20:30;;;;;;;1.50;0.50;;;;;;;9.03;81.57;94418.52;108007;1271;104079;-76
2022/04/09 00:23:10;;;;;;;1.00;0.40;;;;;;;9.12;81.55;94419.42;108060;1270;108431;-76
2022/04/09 00:25:47;;;;;;;0.50;0.30;;;;;;;9.15;81.38;94407.91;108029;1270;50953;-76
2022/04/09 00:28:18;;;;;;;1.10;0.40;;;;;;;9.20;81.49;94410.89;108014;1271;45640;-76
2022/04/09 00:30:49;;;;;;;0.50;0.40;;;;;;;9.21;81.30;94404.06;108085;1271;29466;-75
2022/04/09 00:33:19;;;;;;;0.60;0.60;;;;;;;9.22;81.43;94387.86;107997;1270;74577;-76
2022/04/09 00:35:50;;;;;;;0.80;0.30;;;;;;;9.21;81.07;94392.56;107644;1271;486227;-75
2022/04/09 00:38:21;;;;;;;1.60;0.40;;;;;;;9.24;80.88;94395.61;108059;1271;36359;-75
2022/04/09 00:40:52;;;;;;;1.30;0.70;;;;;;;9.27;80.60;94397.89;108047;1271;78289;-75
2022/04/09 00:43:23;;;;;;;0.90;0.70;;;;;;;9.22;80.64;94404.31;108042;1271;41933;-75
2022/04/09 00:45:54;;;;;;;0.20;0.20;;;;;;;9.18;80.61;94410.54;108016;1270;103825;-76
2022/04/09 00:48:25;;;;;;;1.20;0.60;;;;;;;9.16;80.77;94418.05;108140;1271;38315;-76
2022/04/09 00:50:56;;;;;;;3.10;0.70;;;;;;;9.20;80.89;94415.87;108077;1270;31443;-76
2022/04/09 00:53:28;;;;;;;0.40;0.40;;;;;;;9.34;80.83;94428.14;108095;1270;43262;-75
2022/04/09 00:56:16;;;;;;;0.80;0.50;;;;;;;9.36;80.67;94434.06;108066;1270;44031;-76
2022/04/09 00:58:54;;;;;;;0.70;0.70;;;;;;;9.31;80.63;94428.63;108068;1271;40494;-76
2022/04/09 01:01:28;;;;;;;0.70;0.50;;;;;;;9.28;80.98;94423.77;108145;1270;31596;-76
2022/04/09 01:03:59;;;;;;;1.00;0.80;;;;;;;9.30;81.37;94418.29;108129;1271;35223;-76
2022/04/09 01:06:33;;;;;;;1.10;0.60;;;;;;;9.31;81.43;94415.98;108114;1270;31672;-76
2022/04/09 01:09:05;;;;;;;0.80;0.60;;;;;;;9.31;81.48;94413.77;108032;1274;35892;-76
2022/04/09 01:11:36;;;;;;;1.70;0.70;;;;;;;9.26;81.56;94410.27;108105;1270;32801;-75
2022/04/09 01:14:08;;;;;;;1.30;0.50;;;;;;;9.22;81.72;94409.21;108084;1271;47350;-76
2022/04/09 01:16:38;;;;;;;1.00;0.70;;;;;;;9.21;81.90;94408.42;108046;1271;35406;-75
2022/04/09 01:19:07;;;;;;;;;;;;;;;9.19;81.86;94410.70;108030;1271;30681;-76
2022/04/09 01:21:39;;;;;;;0.80;0.70;;;;;;;9.14;81.73;94400.79;108068;1270;41870;-75
2022/04/09 01:24:10;;;;;;;1.20;1.10;;;;;;;9.12;81.66;94409.68;108097;1270;43140;-76
2022/04/09 01:26:42;;;;;;;2.80;1.90;;;;;;;9.07;81.34;94424.16;108128;1270;32404;-76
2022/04/09 01:29:13;;;;;;;7.90;6.10;;;;;;;9.00;81.18;94431.14;108149;1270;35566;-76
2022/04/09 01:31:44;;;;;;;10.70;8.90;;;;;;;8.70;80.64;94420.41;108141;1270;43389;-75
2022/04/09 01:34:16;;;;;;;14.40;10.80;;;;;;;8.06;81.28;94425.61;108123;1270;38391;-76
2022/04/09 01:36:47;;;;;;;16.70;12.40;;;;;;;7.48;82.30;94428.95;108085;1270;32681;-76
2022/04/09 01:39:18;;;;;;;17.40;13.50;;;;;;;7.11;83.29;94430.13;108101;1270;32718;-76
2022/04/09 01:41:49;;;;;;;20.00;16.30;;;;;;;6.91;83.93;94439.95;108019;1271;31431;-76
2022/04/09 01:44:20;;;;;;;17.70;15.00;;;;;;;6.82;84.32;94445.15;108098;1270;37350;-75
2022/04/09 01:46:50;;;;;;;21.50;16.60;;;;;;;6.75;84.64;94449.27;108070;1270;40572;-76
2022/04/09 01:49:21;;;;;;;19.00;15.00;;;;;;;6.72;85.00;94450.45;108088;1270;33604;-75
2022/04/09 01:51:52;;;;;;;21.50;17.60;;;;;;;6.70;85.11;94449.55;107966;1273;35415;-76
2022/04/09 01:54:23;;;;;;;23.70;18.70;;;;;;;6.71;84.98;94452.09;108075;1270;31773;-75
2022/04/09 01:56:54;;;;;;;23.10;18.40;;;;;;;6.72;85.23;94446.70;108063;1270;40700;-75
2022/04/09 01:59:25;;;;;;;23.40;18.30;;;;;;;6.73;85.26;94447.87;108089;1270;32560;-76
2022/04/09 02:01:55;;;;;;;28.10;20.00;;;;;;;6.73;85.55;94442.92;108039;1270;36899;-75
2022/04/09 02:04:27;;;;;;;34.60;21.60;;;;;;;6.68;85.56;94439.69;108075;1270;35570;-75
2022/04/09 02:06:58;;;;;;;83.10;23.90;;;;;;;6.67;85.68;94439.16;108146;1270;41664;-75
2022/04/09 02:09:30;;;;;;;146.10;22.20;;;;;;;6.63;85.66;94438.10;108082;1270;41187;-75
2022/04/09 02:12:00;;;;;;;179.40;24.40;;;;;;;6.47;85.84;94448.27;108085;1270;39555;-75
2022/04/09 02:14:31;;;;;;;76.80;22.20;;;;;;;6.40;86.34;94446.27;108097;1270;43232;-75
2022/04/09 02:17:02;;;;;;;66.40;22.90;;;;;;;6.39;86.83;94437.54;108043;1270;42604;-76
2022/04/09 02:19:33;;;;;;;40.60;24.10;;;;;;;6.42;86.96;94439.92;108106;1270;33279;-76
2022/04/09 02:22:04;;;;;;;79.20;23.00;;;;;;;6.45;86.89;94443.73;108114;1269;35428;-76
2022/04/09 02:24:35;;;;;;;51.00;23.30;;;;;;;6.45;87.04;94433.36;108089;1270;46843;-75
2022/04/09 02:27:06;;;;;;;175.90;24.70;;;;;;;6.46;87.11;94438.43;108063;1270;38706;-75
2022/04/09 02:29:37;;;;;;;129.10;22.20;;;;;;;6.47;87.18;94444.15;108066;1270;38672;-75
2022/04/09 02:32:09;;;;;;;117.60;21.70;;;;;;;6.40;86.95;94443.88;108085;1271;31924;-76
2022/04/09 02:34:40;;;;;;;88.20;20.70;;;;;;;6.38;87.26;94434.15;108062;1271;39628;-75
2022/04/09 02:37:11;;;;;;;48.00;21.00;;;;;;;6.27;87.47;94421.98;108129;1270;29497;-76
2022/04/09 02:39:43;;;;;;;86.50;22.50;;;;;;;6.24;87.91;94428.41;108041;1273;29424;-75
2022/04/09 02:42:14;;;;;;;104.70;18.40;;;;;;;6.24;87.99;94446.64;108216;1270;32833;-76
2022/04/09 02:44:45;;;;;;;40.80;21.40;;;;;;;6.14;88.29;94445.10;107935;1272;36366;-75
2022/04/09 02:47:16;;;;;;;133.50;23.30;;;;;;;6.13;88.61;94446.17;107888;1273;41090;-75
2022/04/09 02:49:47;;;;;;;79.40;20.70;;;;;;;6.17;88.76;94440.80;108059;1270;38526;-75
2022/04/09 02:52:18;;;;;;;161.00;23.00;;;;;;;6.18;88.81;94438.52;107970;1271;41739;-75
2022/04/09 02:54:49;;;;;;;68.60;19.80;;;;;;;6.13;88.93;94433.19;108080;1270;33146;-75
2022/04/09 02:57:20;;;;;;;100.30;18.80;;;;;;;6.11;89.03;94435.90;108097;1270;37412;-75
2022/04/09 02:59:51;;;;;;;122.30;21.30;;;;;;;6.03;89.06;94427.44;108075;1270;37968;-75
2022/04/09 03:02:21;;;;;;;91.40;22.40;;;;;;;6.02;89.48;94421.73;108074;1270;42548;-75
2022/04/09 03:04:53;;;;;;;80.00;22.60;;;;;;;6.04;89.74;94423.57;108052;1269;37964;-75
2022/04/09 03:07:24;;;;;;;144.60;23.50;;;;;;;6.04;89.70;94415.98;108113;1270;31265;-75
2022/04/09 03:09:55;;;;;;;87.40;20.60;;;;;;;5.98;89.76;94415.27;108064;1270;41587;-75
2022/04/09 03:12:26;;;;;;;72.30;21.90;;;;;;;5.98;90.26;94413.69;108082;1270;42530;-75
2022/04/09 03:14:57;;;;;;;144.70;22.60;;;;;;;6.01;90.23;94412.66;108083;1270;35527;-75
2022/04/09 03:17:27;;;;;;;172.40;20.80;;;;;;;6.03;90.31;94410.91;108120;1270;31172;-75
2022/04/09 03:19:58;;;;;;;146.20;21.60;;;;;;;6.00;90.17;94403.16;108093;1270;34723;-75
2022/04/09 03:22:30;;;;;;;219.60;20.90;;;;;;;5.90;90.43;94396.05;108113;1270;32008;-75
2022/04/09 03:25:01;;;;;;;120.40;21.30;;;;;;;5.83;90.27;94379.86;108100;1270;30280;-75
2022/04/09 03:27:32;;;;;;;231.70;20.80;;;;;;;5.82;90.52;94369.90;108081;1271;33203;-75
2022/04/09 03:30:04;;;;;;;244.40;21.10;;;;;;;5.73;90.61;94373.53;108032;1270;43434;-75
2022/04/09 03:32:36;;;;;;;205.30;20.10;;;;;;;5.74;91.22;94375.17;108003;1270;46947;-75
2022/04/09 03:35:09;;;;;;;46.60;19.20;;;;;;;5.73;91.07;94376.28;108125;1270;32464;-75
2022/04/09 03:37:40;;;;;;;157.20;20.80;;;;;;;5.73;91.45;94357.08;108154;1268;31827;-75
2022/04/09 03:40:13;;;;;;;94.40;20.90;;;;;;;5.75;91.46;94344.09;108151;1270;30625;-75
2022/04/09 03:42:44;;;;;;;98.60;20.20;;;;;;;5.78;91.65;94343.06;108136;1270;34412;-75
2022/04/09 03:45:15;;;;;;;102.60;21.50;;;;;;;5.83;91.89;94334.64;108091;1270;34044;-75
2022/04/09 03:47:46;;;;;;;99.90;19.40;;;;;;;5.82;91.78;94329.59;108091;1270;37668;-75
2022/04/09 03:50:17;;;;;;;97.90;18.80;;;;;;;5.80;91.85;94327.09;108075;1270;34972;-75
2022/04/09 03:52:48;;;;;;;50.50;15.30;;;;;;;5.78;91.96;94332.92;108043;1270;34292;-75
2022/04/09 03:55:19;;;;;;;17.70;12.20;;;;;;;5.67;92.47;94333.58;108051;1270;45796;-75
2022/04/09 03:57:50;;;;;;;9.10;5.90;;;;;;;5.74;94.07;94324.83;108096;1270;40231;-75
2022/04/09 04:00:21;;;;;;;0.50;0.50;;;;;;;6.26;95.86;94327.27;108090;1270;42915;-75
2022/04/09 04:02:52;;;;;;;1.00;0.60;;;;;;;7.10;95.90;94309.39;108070;1270;38122;-75
2022/04/09 04:05:23;;;;;;;0.20;0.20;;;;;;;7.76;94.28;94321.25;108103;1270;33030;-75
2022/04/09 04:07:54;;;;;;;0.60;0.60;;;;;;;8.14;92.16;94318.96;108100;1270;40025;-75
2022/04/09 04:10:24;;;;;;;0.60;0.60;;;;;;;8.48;90.21;94306.63;107984;1270;45901;-75
2022/04/09 04:12:56;;;;;;;0.60;0.40;;;;;;;8.69;88.71;94293.73;108001;1271;43376;-75
2022/04/09 04:15:27;;;;;;;1.40;0.60;;;;;;;8.86;87.05;94295.48;108017;1270;36463;-75
2022/04/09 04:17:58;;;;;;;1.30;0.50;;;;;;;8.99;86.31;94290.64;108064;1270;37321;-75
2022/04/09 04:20:29;;;;;;;0.60;0.50;;;;;;;9.06;85.07;94289.16;108068;1270;38866;-75
2022/04/09 04:23:00;;;;;;;0.80;0.50;;;;;;;9.19;84.30;94288.36;108027;1270;34518;-75
2022/04/09 04:25:30;;;;;;;0.20;0.20;;;;;;;9.28;83.38;94288.23;108090;1270;32493;-75
2022/04/09 04:28:01;;;;;;;0.40;0.30;;;;;;;9.40;82.27;94279.91;108103;1270;32939;-75
2022/04/09 04:30:32;;;;;;;1.20;0.70;;;;;;;9.48;81.82;94279.29;108053;1270;42504;-75
2022/04/09 04:33:04;;;;;;;0.90;0.50;;;;;;;9.52;81.11;94269.05;108085;1270;31227;-75
2022/04/09 04:35:35;;;;;;;0.90;0.40;;;;;;;9.57;80.61;94281.54;108078;1270;37578;-75
2022/04/09 04:38:06;;;;;;;2.00;0.50;;;;;;;9.62;80.12;94273.05;108107;1270;35244;-75
2022/04/09 04:40:37;;;;;;;0.90;0.30;;;;;;;9.67;79.65;94261.80;108044;1270;44082;-75
2022/04/09 04:43:08;;;;;;;0.20;0.20;;;;;;;9.73;79.05;94259.70;108037;1270;33746;-75
2022/04/09 04:45:39;;;;;;;0.40;0.40;;;;;;;9.81;78.55;94260.83;108058;1270;34045;-75
2022/04/09 04:48:10;;;;;;;0.60;0.40;;;;;;;9.87;77.96;94277.42;108020;1270;43789;-75
2022/04/09 04:50:40;;;;;;;1.90;1.00;;;;;;;9.91;78.14;94283.16;108059;1270;42127;-75
2022/04/09 04:53:11;;;;;;;1.00;0.40;;;;;;;9.90;78.35;94292.34;107987;1272;43263;-75
2022/04/09 04:55:40;;;;;;;;;;;;;;;9.87;78.34;94286.89;108145;1270;40294;-75
2022/04/09 04:58:11;;;;;;;1.60;0.30;;;;;;;9.89;77.71;94273.79;108131;1270;34235;-75
2022/04/09 05:00:42;;;;;;;1.60;0.60;;;;;;;10.01;77.08;94283.16;108098;1270;39238;-75
2022/04/09 05:03:13;;;;;;;1.80;0.60;;;;;;;10.05;77.40;94277.45;108079;1270;37584;-75
2022/04/09 05:05:44;;;;;;;0.40;0.30;;;;;;;10.05;76.54;94269.29;108137;1270;34654;-75
2022/04/09 05:08:15;;;;;;;2.00;1.20;;;;;;;10.17;76.07;94281.83;108123;1270;38235;-75
2022/04/09 05:10:46;;;;;;;0.90;0.70;;;;;;;10.18;76.03;94291.61;108052;1270;35161;-75
2022/04/09 05:13:17;;;;;;;2.00;0.50;;;;;;;10.15;76.28;94283.44;108027;1270;41284;-75
2022/04/09 05:15:47;;;;;;;1.80;0.60;;;;;;;10.15;76.10;94284.87;108015;1270;54739;-75
2022/04/09 05:18:18;;;;;;;0.70;0.40;;;;;;;10.17;76.03;94281.77;108001;1271;41629;-75
2022/04/09 05:20:51;;;;;;;6.90;2.80;;;;;;;10.19;75.69;94285.52;108057;1270;33564;-75
2022/04/09 05:23:21;;;;;;;0.30;0.20;;;;;;;10.28;74.66;94279.70;108040;1270;31856;-75
2022/04/09 05:25:53;;;;;;;1.10;0.40;;;;;;;10.39;74.06;94279.59;108007;1270;33914;-75
2022/04/09 05:28:24;;;;;;;0.30;0.30;;;;;;;10.43;73.92;94274.94;108071;1270;43891;-75
2022/04/09 05:30:55;;;;;;;1.30;0.50;;;;;;;10.45;73.57;94275.36;108075;1270;38169;-75
2022/04/09 05:33:27;;;;;;;0.80;0.40;;;;;;;10.47;73.44;94271.35;108088;1270;30440;-75
2022/04/09 05:35:58;;;;;;;1.60;0.10;;;;;;;10.49;73.19;94242.33;108055;1270;43813;-75
2022/04/09 05:38:30;;;;;;;0.90;0.40;;;;;;;10.54;73.14;94248.90;108069;1270;37269;-75
2022/04/09 05:41:01;;;;;;;1.70;0.70;;;;;;;10.66;73.34;94240.09;108023;1270;40153;-75
2022/04/09 05:43:32;;;;;;;0.30;0.30;;;;;;;10.82;72.95;94242.19;108055;1270;32238;-75
2022/04/09 05:46:03;;;;;;;0.60;0.60;;;;;;;10.91;72.20;94232.44;108006;1268;45686;-75
2022/04/09 05:48:34;;;;;;;0.50;0.40;;;;;;;10.96;71.99;94218.34;108043;1270;42235;-75
2022/04/09 05:51:05;;;;;;;1.80;0.50;;;;;;;11.14;71.89;94237.75;108076;1270;44091;-75
2022/04/09 05:53:36;;;;;;;0.70;0.40;;;;;;;11.37;70.69;94228.32;108131;1270;32906;-75
2022/04/09 05:56:08;;;;;;;1.80;0.70;;;;;;;11.33;70.42;94244.67;108080;1270;40685;-75
2022/04/09 05:58:41;;;;;;;1.20;0.70;;;;;;;11.35;70.34;94240.48;108062;1270;31382;-75
2022/04/09 06:01:13;;;;;;;0.70;0.60;;;;;;;11.75;69.35;94239.41;108062;1271;41808;-76
2022/04/09 06:03:44;;;;;;;1.50;0.50;;;;;;;13.28;66.89;94256.14;108100;1270;41993;-76
2022/04/09 06:06:15;;;;;;;1.20;0.80;;;;;;;14.77;64.13;94256.05;108128;1270;43033;-75
2022/04/09 06:08:47;;;;;;;1.00;0.80;;;;;;;16.24;61.69;94255.41;108044;1270;39291;-76
2022/04/09 06:11:18;;;;;;;0.80;0.60;;;;;;;16.98;57.50;94248.55;108115;1270;32064;-75
2022/04/09 06:13:50;;;;;;;1.10;0.60;;;;;;;17.83;57.10;94248.48;108084;1267;41182;-76
2022/04/09 06:16:22;;;;;;;2.60;0.60;;;;;;;17.77;54.57;94241.04;108098;1270;33455;-76
2022/04/09 06:18:53;;;;;;;1.50;0.60;;;;;;;16.76;54.67;94248.64;108029;1270;37913;-76
2022/04/09 06:21:27;;;;;;;0.60;0.50;;;;;;;15.98;54.71;94254.92;108112;1268;33632;-76
2022/04/09 06:23:58;;;;;;;1.90;0.90;;;;;;;14.93;55.37;94270.66;108097;1270;37171;-76
2022/04/09 06:26:29;;;;;;;2.50;0.80;;;;;;;13.98;57.96;94281.94;108097;1270;36772;-76
2022/04/09 06:29:00;;;;;;;1.90;0.80;;;;;;;13.43;59.12;94273.54;108076;1270;41338;-75
2022/04/09 06:31:32;;;;;;;0.80;0.60;;;;;;;12.93;60.07;94281.08;108015;1270;32515;-76
2022/04/09 06:34:03;;;;;;;7.90;2.80;;;;;;;12.62;61.51;94296.07;108070;1270;33339;-76
2022/04/09 06:36:34;;;;;;;12.10;7.90;;;;;;;12.11;63.68;94325.95;107987;1270;41943;-76
2022/04/09 06:39:05;;;;;;;10.70;7.90;;;;;;;10.84;67.42;94387.20;108112;1270;46698;-75
2022/04/09 06:41:36;;;;;;;6.30;4.90;;;;;;;9.66;70.43;94436.77;108083;1270;35946;-76
2022/04/09 06:44:08;;;;;;;5.30;3.90;;;;;;;8.96;73.83;94458.40;108043;1270;43813;-76
2022/04/09 06:46:43;;;;;;;7.50;5.80;;;;;;;8.45;76.53;94494.21;108078;1270;41189;-76
2022/04/09 06:49:15;;;;;;;5.40;3.80;;;;;;;8.10;77.86;94512.23;108008;1272;30554;-76
2022/04/09 06:51:47;;;;;;;6.50;4.60;;;;;;;7.84;77.44;94556.54;108078;1270;32582;-76
2022/04/09 06:54:20;;;;;;;4.80;3.30;;;;;;;7.82;77.65;94576.59;108065;1269;35598;-76
2022/04/09 06:56:51;;;;;;;2.90;2.20;;;;;;;7.67;77.86;94592.44;108068;1270;40275;-76
2022/04/09 06:59:22;;;;;;;2.50;2.20;;;;;;;7.24;78.95;94604.09;108092;1270;42135;-76
2022/04/09 07:01:53;;;;;;;4.90;3.10;;;;;;;6.94;79.74;94603.06;108063;1270;47227;-76
2022/04/09 07:04:24;;;;;;;2.40;1.90;;;;;;;6.88;79.50;94633.02;108012;1270;41314;-77
2022/04/09 07:06:55;;;;;;;2.90;2.00;;;;;;;6.84;79.34;94651.94;108018;1270;69031;-76
2022/04/09 07:09:26;;;;;;;3.50;1.70;;;;;;;6.79;78.97;94667.65;108088;1270;32522;-77
2022/04/09 07:11:57;;;;;;;1.50;1.00;;;;;;;6.57;79.46;94682.14;108087;1270;39950;-76
2022/04/09 07:14:29;;;;;;;4.10;2.00;;;;;;;6.26;80.03;94690.59;108066;1270;34364;-76
2022/04/09 07:17:03;;;;;;;3.20;1.90;;;;;;;6.19;80.36;94710.80;108117;1270;32412;-76
2022/04/09 07:19:34;;;;;;;1.20;1.00;;;;;;;6.19;80.25;94720.69;107991;1271;51242;-76
2022/04/09 07:22:06;;;;;;;5.30;2.70;;;;;;;6.01;80.91;94735.81;108044;1270;40865;-76
2022/04/09 07:24:37;;;;;;;2.50;1.20;;;;;;;5.93;80.73;94749.08;108082;1270;37223;-76
2022/04/09 07:27:08;;;;;;;2.70;1.50;;;;;;;5.89;81.57;94763.84;108098;1270;35176;-76
2022/04/09 07:29:39;;;;;;;4.00;2.10;;;;;;;5.72;81.89;94773.30;108100;1268;38002;-76
2022/04/09 07:32:11;;;;;;;9.80;1.10;;;;;;;5.64;82.15;94768.52;108087;1270;32410;-76
2022/04/09 07:34:43;;;;;;;2.70;1.30;;;;;;;5.36;83.13;94786.06;108096;1269;43423;-76
2022/04/09 07:37:14;;;;;;;1.50;1.30;;;;;;;5.17;83.15;94797.72;108184;1270;42908;-76
2022/04/09 07:39:45;;;;;;;1.60;0.90;;;;;;;5.02;83.62;94832.05;108165;1270;32609;-76
2022/04/09 07:42:16;;;;;;;0.80;0.60;;;;;;;4.71;83.47;94834.86;108177;1269;44803;-76
2022/04/09 07:44:47;;;;;;;2.70;0.80;;;;;;;4.42;83.82;94864.80;108040;1270;47846;-76
2022/04/09 07:47:18;;;;;;;1.90;1.10;;;;;;;4.40;83.67;94882.67;108074;1270;33276;-76
2022/04/09 07:49:49;;;;;;;2.50;1.20;;;;;;;4.46;83.39;94877.61;108097;1270;34087;-76
2022/04/09 07:52:20;;;;;;;2.50;1.30;;;;;;;4.52;82.95;94894.49;108077;1270;34370;-76
2022/04/09 07:54:51;;;;;;;1.80;0.90;;;;;;;4.57;82.61;94920.45;108045;1270;36709;-76
2022/04/09 07:57:23;;;;;;;1.10;0.80;;;;;;;4.51;82.39;94934.90;107932;1271;41620;-76
2022/04/09 07:59:57;;;;;;;2.60;1.10;;;;;;;4.39;82.41;94949.17;107951;1271;48275;-76
2022/04/09 08:02:28;;;;;;;0.90;0.50;;;;;;;4.29;82.79;94952.27;108056;1270;45117;-76
2022/04/09 08:04:59;;;;;;;2.10;1.40;;;;;;;4.05;83.19;94980.45;108059;1270;41106;-76
2022/04/09 08:07:30;;;;;;;2.20;1.20;;;;;;;4.01;83.56;94999.37;108098;1270;40082;-76
2022/04/09 08:10:03;;;;;;;2.40;0.90;;;;;;;3.92;83.80;94999.70;108098;1270;37029;-76
2022/04/09 08:12:34;;;;;;;1.10;0.80;;;;;;;3.76;83.94;95007.42;108133;1270;34106;-76
2022/04/09 08:15:06;;;;;;;0.80;0.70;;;;;;;3.69;84.07;95017.76;108063;1270;47383;-76
2022/04/09 08:17:39;;;;;;;1.00;0.70;;;;;;;3.58;84.68;95035.97;108125;1270;44965;-75
2022/04/09 08:20:14;;;;;;;1.50;0.80;;;;;;;3.53;84.66;95045.08;108051;1270;45678;-75
2022/04/09 08:22:45;;;;;;;0.90;0.70;;;;;;;3.56;85.26;95041.74;108141;1269;41548;-76
2022/04/09 08:25:16;;;;;;;2.40;1.40;;;;;;;3.44;85.33;95043.86;108166;1270;35009;-76
2022/04/09 08:27:49;;;;;;;1.20;0.80;;;;;;;3.40;85.36;95053.59;108077;1270;35508;-76
2022/04/09 08:30:22;;;;;;;2.40;1.30;;;;;;;3.38;85.69;95055.31;108100;1270;32341;-76
2022/04/09 08:32:54;;;;;;;1.70;1.10;;;;;;;3.32;85.94;95061.27;108038;1270;34175;-76
2022/04/09 08:35:25;;;;;;;4.70;2.70;;;;;;;3.31;85.68;95060.85;108025;1270;36467;-76
2022/04/09 08:37:57;;;;;;;1.70;1.40;;;;;;;3.38;85.86;95065.85;108056;1270;57128;-76
2022/04/09 08:40:28;;;;;;;3.10;1.20;;;;;;;3.39;85.89;95069.31;108077;1270;33407;-75
2022/04/09 08:43:00;;;;;;;3.60;2.10;;;;;;;3.38;85.87;95078.58;108104;1270;31092;-75
2022/04/09 08:45:35;;;;;;;1.70;1.00;;;;;;;3.43;85.78;95089.77;108057;1270;43183;-76
2022/04/09 08:48:09;;;;;;;3.00;2.30;;;;;;;3.35;85.77;95095.93;107983;1270;37321;-76
2022/04/09 08:50:42;;;;;;;1.90;1.60;;;;;;;3.29;85.71;95106.08;107989;1271;40212;-76
2022/04/09 08:53:13;;;;;;;7.00;4.90;;;;;;;3.27;86.28;95129.45;108095;1270;37775;-75
2022/04/09 08:55:45;;;;;;;6.50;2.70;;;;;;;3.23;86.30;95152.44;108046;1271;47940;-75
2022/04/09 08:58:17;;;;;;;4.90;3.20;;;;;;;3.16;86.62;95148.70;108127;1270;33546;-76
2022/04/09 09:00:48;;;;;;;3.60;2.80;;;;;;;3.08;86.55;95149.39;108089;1270;36518;-75
2022/04/09 09:03:19;;;;;;;2.60;2.20;;;;;;;3.09;86.70;95151.70;108072;1270;41396;-75
2022/04/09 09:05:52;;;;;;;9.50;6.70;;;;;;;3.00;86.84;95168.27;108097;1270;31953;-75
2022/04/09 09:11:20;;;;;;;5.60;4.00;;;;;;;2.94;86.82;95211.93;104678;1306;587940;-76
2022/04/09 09:13:52;;;;;;;14.20;8.80;;;;;;;2.97;87.10;95222.98;108086;1271;43313;-76
2022/04/09 09:16:28;;;;;;;7.80;5.30;;;;;;;2.95;87.32;95223.30;108123;1271;35752;-76
2022/04/09 09:19:04;;;;;;;10.90;6.80;;;;;;;2.91;87.22;95243.61;108127;1271;31727;-76
2022/04/09 09:21:35;;;;;;;7.00;5.10;;;;;;;3.00;87.18;95261.98;108130;1271;33320;-76
2022/04/09 09:24:16;;;;;;;7.80;6.00;;;;;;;3.11;87.16;95273.48;107872;1271;274583;-75
2022/04/09 09:26:46;;;;;;;;;;;;;;;3.15;86.69;95268.46;108243;1268;40934;-76
2022/04/09 09:29:29;;;;;;;7.50;4.90;;;;;;;3.18;86.76;95277.78;108236;1267;43548;-76
2022/04/09 09:32:03;;;;;;;6.20;3.80;;;;;;;3.28;86.76;95284.69;108215;1268;41813;-76
2022/04/09 09:34:35;;;;;;;15.70;7.80;;;;;;;3.20;86.51;95302.34;108161;1268;43027;-76
2022/04/09 09:37:21;;;;;;;11.70;6.40;;;;;;;3.17;86.55;95312.03;108155;1268;33138;-76
2022/04/09 09:39:52;;;;;;;36.20;18.10;;;;;;;3.13;86.29;95329.80;108223;1268;29996;-76
2022/04/09 09:42:26;;;;;;;3.60;3.00;;;;;;;3.10;86.40;95336.50;108191;1268;31006;-76
2022/04/09 09:44:57;;;;;;;7.60;4.70;;;;;;;3.00;86.72;95349.27;108179;1267;33421;-76
2022/04/09 09:47:29;;;;;;;5.10;2.90;;;;;;;2.97;86.74;95359.21;108100;1268;43715;-76
2022/04/09 09:50:00;;;;;;;4.70;3.30;;;;;;;2.97;86.72;95368.55;108147;1268;41186;-76
2022/04/09 09:52:34;;;;;;;8.40;5.10;;;;;;;2.96;86.42;95375.82;108171;1268;37365;-75
2022/04/09 09:55:10;;;;;;;17.40;10.30;;;;;;;2.99;86.21;95370.59;108185;1268;42751;-75
2022/04/09 09:57:42;;;;;;;11.80;7.80;;;;;;;3.00;85.80;95385.19;108136;1268;44412;-75
2022/04/09 10:00:15;;;;;;;4.30;3.50;;;;;;;3.03;85.80;95389.01;108179;1268;44563;-75
2022/04/09 10:02:47;;;;;;;18.00;12.20;;;;;;;2.99;85.47;95397.60;108226;1268;30018;-75
2022/04/09 10:05:23;;;;;;;32.20;19.90;;;;;;;2.97;85.73;95394.14;108187;1268;30580;-75
2022/04/09 10:07:56;;;;;;;15.30;8.10;;;;;;;3.06;85.78;95391.57;108141;1268;32891;-76
2022/04/09 10:10:28;;;;;;;38.70;18.80;;;;;;;3.09;85.52;95392.77;108172;1268;39547;-75
2022/04/09 10:13:02;;;;;;;11.30;6.80;;;;;;;3.13;85.08;95398.72;108129;1268;42930;-75
2022/04/09 10:15:34;;;;;;;20.90;9.10;;;;;;;3.17;85.03;95391.69;108160;1268;44283;-75
2022/04/09 10:18:09;;;;;;;5.60;3.90;;;;;;;3.18;84.93;95393.48;108147;1268;32236;-75
2022/04/09 10:20:40;;;;;;;5.90;3.60;;;;;;;3.17;85.02;95400.17;108152;1268;41701;-75
2022/04/09 10:23:14;;;;;;;4.30;3.10;;;;;;;3.18;84.83;95400.70;108100;1268;45175;-75
2022/04/09 10:25:46;;;;;;;3.90;2.50;;;;;;;3.17;84.65;95409.61;108193;1268;42390;-75
2022/04/09 10:28:32;;;;;;;5.60;3.90;;;;;;;3.16;84.51;95414.05;108174;1268;34741;-75
2022/04/09 10:31:03;;;;;;;4.90;3.60;;;;;;;3.15;84.42;95420.49;108150;1268;43871;-75
2022/04/09 10:33:37;;;;;;;5.00;3.20;;;;;;;3.13;84.29;95426.48;108194;1267;44538;-75
2022/04/09 10:36:10;;;;;;;7.00;3.30;;;;;;;3.13;84.45;95421.50;108125;1271;45094;-75
2022/04/09 10:38:41;;;;;;;9.00;6.20;;;;;;;3.17;84.35;95426.98;108133;1268;56225;-75
2022/04/09 10:41:27;;;;;;;8.30;5.40;;;;;;;3.26;84.60;95430.98;108154;1268;43582;-75
2022/04/09 10:44:02;;;;;;;6.50;4.90;;;;;;;3.34;84.61;95432.77;108193;1268;42404;-74
2022/04/09 10:46:37;;;;;;;6.50;4.90;;;;;;;3.38;84.44;95429.58;108105;1268;43715;-75
2022/04/09 10:49:22;;;;;;;6.80;5.30;;;;;;;3.42;83.97;95428.17;108152;1271;29645;-75
2022/04/09 10:52:14;;;;;;;5.00;3.60;;;;;;;3.43;83.81;95429.53;108180;1268;30284;-74
2022/04/09 10:55:22;;;;;;;10.50;8.30;;;;;;;3.41;83.64;95433.16;108249;1268;49310;-75
2022/04/09 10:58:04;;;;;;;7.80;5.60;;;;;;;3.45;83.72;95430.42;108147;1268;32590;-75
2022/04/09 11:00:43;;;;;;;10.90;3.70;;;;;;;3.45;83.30;95427.27;108155;1268;37050;-75
2022/04/09 11:03:35;;;;;;;12.90;6.80;;;;;;;3.34;82.56;95428.36;108183;1268;41374;-75
2022/04/09 11:06:43;;;;;;;7.40;4.90;;;;;;;3.29;82.79;95428.21;108151;1268;31118;-74
2022/04/09 11:09:15;;;;;;;10.90;6.10;;;;;;;3.25;82.95;95422.09;108219;1268;30609;-75
2022/04/09 11:11:46;;;;;;;7.50;4.70;;;;;;;3.32;83.00;95429.52;108233;1268;45017;-75
2022/04/09 11:14:17;;;;;;;7.10;5.00;;;;;;;3.35;82.99;95426.11;108118;1268;43926;-75
2022/04/09 11:16:49;;;;;;;8.10;5.30;;;;;;;3.33;82.69;95433.76;108158;1268;40330;-75
2022/04/09 11:19:22;;;;;;;6.30;4.80;;;;;;;3.32;82.52;95443.88;108160;1268;38616;-75
2022/04/09 11:21:54;;;;;;;9.10;4.80;;;;;;;3.34;82.43;95456.86;108100;1268;46704;-74
2022/04/09 11:24:36;;;;;;;11.50;6.10;;;;;;;3.34;82.27;95471.84;108081;1267;41567;-75
2022/04/09 11:27:07;;;;;;;8.40;6.20;;;;;;;3.30;82.23;95497.16;108178;1268;31299;-75
2022/04/09 11:29:40;;;;;;;7.00;6.10;;;;;;;3.30;82.53;95504.54;108143;1268;41664;-74
2022/04/09 11:32:19;;;;;;;6.20;5.00;;;;;;;3.31;82.28;95504.80;108138;1267;46848;-75
2022/04/09 11:34:52;;;;;;;9.70;6.90;;;;;;;3.28;81.93;95509.25;108094;1268;39602;-75
2022/04/09 11:37:26;;;;;;;10.30;8.50;;;;;;;3.31;82.21;95513.23;108167;1268;40211;-75
2022/04/09 11:39:58;;;;;;;11.20;7.70;;;;;;;3.40;82.73;95523.27;108162;1268;31641;-75
2022/04/09 11:42:29;;;;;;;11.50;7.20;;;;;;;3.46;82.43;95518.20;108157;1269;33737;-75
2022/04/09 11:45:01;;;;;;;8.60;6.40;;;;;;;3.41;81.70;95519.50;108153;1268;45316;-75
2022/04/09 11:47:32;;;;;;;9.90;8.30;;;;;;;3.37;82.10;95527.39;108116;1268;42692;-75
2022/04/09 11:50:05;;;;;;;8.90;6.00;;;;;;;3.43;82.52;95534.80;108126;1271;43251;-75
2022/04/09 11:52:36;;;;;;;12.70;8.10;;;;;;;3.46;82.24;95544.44;108128;1268;44875;-75